sensor_id;sensor_type;location;lat;lon;timestamp;P1;durP1;ratioP1;P2;durP2;ratioP2
32918;SDS011;19280;42.646;21.150;2023-03-01T00:02:02;17.38;;;9.43;;
32918;SDS011;19280;42.646;21.150;2023-03-01T00:04:29;15.77;;;8.27;;
32918;SDS011;19280;42.646;21.150;2023-03-01T00:06:55;17.85;;;8.98;;
32918;SDS011;19280;42.646;21.150;2023-03-01T00:09:22;14.38;;;7.90;;
32918;SDS011;19280;42.646;21.150;2023-03-01T00:11:48;17.80;;;8.27;;
32918;SDS011;19280;42.646;21.150;2023-03-01T00:14:14;18.83;;;9.52;;
32918;SDS011;19280;42.646;21.150;2023-03-01T00:16:42;20.33;;;9.05;;
32918;SDS011;19280;42.646;21.150;2023-03-01T00:19:09;18.80;;;8.73;;
32918;SDS011;19280;42.646;21.150;2023-03-01T00:21:36;16.88;;;8.57;;
32918;SDS011;19280;42.646;21.150;2023-03-01T00:24:03;20.15;;;8.18;;
32918;SDS011;19280;42.646;21.150;2023-03-01T00:26:29;15.73;;;8.45;;
32918;SDS011;19280;42.646;21.150;2023-03-01T00:28:56;15.68;;;8.23;;
32918;SDS011;19280;42.646;21.150;2023-03-01T00:31:23;13.13;;;6.90;;
32918;SDS011;19280;42.646;21.150;2023-03-01T00:33:52;13.68;;;6.95;;
32918;SDS011;19280;42.646;21.150;2023-03-01T00:36:22;13.48;;;7.28;;
32918;SDS011;19280;42.646;21.150;2023-03-01T00:38:48;11.40;;;5.88;;
32918;SDS011;19280;42.646;21.150;2023-03-01T00:41:15;9.68;;;5.88;;
32918;SDS011;19280;42.646;21.150;2023-03-01T00:43:42;10.27;;;6.10;;
32918;SDS011;19280;42.646;21.150;2023-03-01T00:46:09;8.90;;;4.88;;
32918;SDS011;19280;42.646;21.150;2023-03-01T00:48:36;8.82;;;4.68;;
32918;SDS011;19280;42.646;21.150;2023-03-01T00:53:31;8.43;;;4.78;;
32918;SDS011;19280;42.646;21.150;2023-03-01T00:55:57;10.55;;;5.15;;
32918;SDS011;19280;42.646;21.150;2023-03-01T00:58:23;9.77;;;5.47;;
32918;SDS011;19280;42.646;21.150;2023-03-01T01:00:50;7.82;;;4.88;;
32918;SDS011;19280;42.646;21.150;2023-03-01T01:03:17;12.07;;;5.88;;
32918;SDS011;19280;42.646;21.150;2023-03-01T01:05:43;10.18;;;5.95;;
32918;SDS011;19280;42.646;21.150;2023-03-01T01:08:09;12.98;;;5.35;;
32918;SDS011;19280;42.646;21.150;2023-03-01T01:10:35;12.95;;;6.63;;
32918;SDS011;19280;42.646;21.150;2023-03-01T01:13:01;12.55;;;6.10;;
32918;SDS011;19280;42.646;21.150;2023-03-01T01:15:27;18.25;;;7.13;;
32918;SDS011;19280;42.646;21.150;2023-03-01T01:17:53;13.85;;;6.85;;
32918;SDS011;19280;42.646;21.150;2023-03-01T01:20:20;10.63;;;6.55;;
32918;SDS011;19280;42.646;21.150;2023-03-01T01:22:46;12.88;;;7.15;;
32918;SDS011;19280;42.646;21.150;2023-03-01T01:25:12;13.82;;;7.50;;
32918;SDS011;19280;42.646;21.150;2023-03-01T01:27:38;12.82;;;7.35;;
32918;SDS011;19280;42.646;21.150;2023-03-01T01:30:04;11.13;;;6.82;;
32918;SDS011;19280;42.646;21.150;2023-03-01T01:32:30;13.18;;;7.68;;
32918;SDS011;19280;42.646;21.150;2023-03-01T01:34:56;13.20;;;7.63;;
32918;SDS011;19280;42.646;21.150;2023-03-01T01:37:22;16.42;;;7.60;;
32918;SDS011;19280;42.646;21.150;2023-03-01T01:39:59;18.00;;;7.47;;
32918;SDS011;19280;42.646;21.150;2023-03-01T01:42:25;14.82;;;7.50;;
32918;SDS011;19280;42.646;21.150;2023-03-01T01:47:36;16.90;;;8.02;;
32918;SDS011;19280;42.646;21.150;2023-03-01T01:50:02;16.98;;;8.05;;
32918;SDS011;19280;42.646;21.150;2023-03-01T01:52:29;13.55;;;8.25;;
32918;SDS011;19280;42.646;21.150;2023-03-01T01:55:02;16.88;;;8.63;;
32918;SDS011;19280;42.646;21.150;2023-03-01T01:57:33;14.60;;;7.93;;
32918;SDS011;19280;42.646;21.150;2023-03-01T02:00:06;18.83;;;8.05;;
32918;SDS011;19280;42.646;21.150;2023-03-01T02:02:34;20.67;;;8.90;;
32918;SDS011;19280;42.646;21.150;2023-03-01T02:05:02;14.80;;;8.63;;
32918;SDS011;19280;42.646;21.150;2023-03-01T02:07:29;14.73;;;7.97;;
32918;SDS011;19280;42.646;21.150;2023-03-01T02:09:55;13.00;;;7.95;;
32918;SDS011;19280;42.646;21.150;2023-03-01T02:12:23;22.65;;;9.65;;
32918;SDS011;19280;42.646;21.150;2023-03-01T02:14:50;21.02;;;9.95;;
32918;SDS011;19280;42.646;21.150;2023-03-01T02:17:16;13.13;;;8.52;;
32918;SDS011;19280;42.646;21.150;2023-03-01T02:22:31;15.88;;;9.27;;
32918;SDS011;19280;42.646;21.150;2023-03-01T02:25:04;15.57;;;9.52;;
32918;SDS011;19280;42.646;21.150;2023-03-01T02:27:38;14.13;;;8.43;;
32918;SDS011;19280;42.646;21.150;2023-03-01T02:30:06;18.50;;;9.43;;
32918;SDS011;19280;42.646;21.150;2023-03-01T02:32:33;19.85;;;10.48;;
32918;SDS011;19280;42.646;21.150;2023-03-01T02:35:00;24.50;;;10.95;;
32918;SDS011;19280;42.646;21.150;2023-03-01T02:37:31;24.02;;;13.02;;
32918;SDS011;19280;42.646;21.150;2023-03-01T02:39:58;22.13;;;11.48;;
32918;SDS011;19280;42.646;21.150;2023-03-01T02:42:35;21.35;;;12.27;;
32918;SDS011;19280;42.646;21.150;2023-03-01T02:45:02;20.02;;;11.25;;
32918;SDS011;19280;42.646;21.150;2023-03-01T02:47:29;19.30;;;10.80;;
32918;SDS011;19280;42.646;21.150;2023-03-01T02:49:55;18.92;;;9.43;;
32918;SDS011;19280;42.646;21.150;2023-03-01T02:57:25;13.43;;;7.10;;
32918;SDS011;19280;42.646;21.150;2023-03-01T02:59:53;20.20;;;10.30;;
32918;SDS011;19280;42.646;21.150;2023-03-01T03:02:24;25.48;;;11.85;;
32918;SDS011;19280;42.646;21.150;2023-03-01T03:07:31;15.05;;;8.82;;
32918;SDS011;19280;42.646;21.150;2023-03-01T03:09:58;17.83;;;8.35;;
32918;SDS011;19280;42.646;21.150;2023-03-01T03:12:24;15.52;;;8.15;;
32918;SDS011;19280;42.646;21.150;2023-03-01T03:14:50;16.38;;;8.93;;
32918;SDS011;19280;42.646;21.150;2023-03-01T03:17:16;14.55;;;8.68;;
32918;SDS011;19280;42.646;21.150;2023-03-01T03:19:42;16.52;;;8.88;;
32918;SDS011;19280;42.646;21.150;2023-03-01T03:22:10;13.52;;;8.10;;
32918;SDS011;19280;42.646;21.150;2023-03-01T03:24:36;15.60;;;8.75;;
32918;SDS011;19280;42.646;21.150;2023-03-01T03:27:03;17.05;;;8.98;;
32918;SDS011;19280;42.646;21.150;2023-03-01T03:29:29;15.23;;;7.72;;
32918;SDS011;19280;42.646;21.150;2023-03-01T03:31:55;18.40;;;7.88;;
32918;SDS011;19280;42.646;21.150;2023-03-01T03:34:22;12.52;;;7.45;;
32918;SDS011;19280;42.646;21.150;2023-03-01T03:36:48;16.38;;;9.35;;
32918;SDS011;19280;42.646;21.150;2023-03-01T03:39:21;17.77;;;9.98;;
32918;SDS011;19280;42.646;21.150;2023-03-01T03:41:47;16.45;;;9.68;;
32918;SDS011;19280;42.646;21.150;2023-03-01T03:44:13;18.80;;;9.73;;
32918;SDS011;19280;42.646;21.150;2023-03-01T03:46:39;16.00;;;9.20;;
32918;SDS011;19280;42.646;21.150;2023-03-01T03:49:05;16.40;;;8.75;;
32918;SDS011;19280;42.646;21.150;2023-03-01T03:51:31;17.23;;;9.02;;
32918;SDS011;19280;42.646;21.150;2023-03-01T03:53:57;18.38;;;10.38;;
32918;SDS011;19280;42.646;21.150;2023-03-01T03:56:23;15.52;;;9.30;;
32918;SDS011;19280;42.646;21.150;2023-03-01T03:58:51;17.05;;;8.80;;
32918;SDS011;19280;42.646;21.150;2023-03-01T04:01:17;18.77;;;9.60;;
32918;SDS011;19280;42.646;21.150;2023-03-01T04:03:43;15.07;;;8.48;;
32918;SDS011;19280;42.646;21.150;2023-03-01T04:06:13;16.25;;;9.60;;
32918;SDS011;19280;42.646;21.150;2023-03-01T04:08:39;16.05;;;9.15;;
32918;SDS011;19280;42.646;21.150;2023-03-01T04:11:06;14.63;;;7.70;;
32918;SDS011;19280;42.646;21.150;2023-03-01T04:13:51;13.70;;;6.82;;
32918;SDS011;19280;42.646;21.150;2023-03-01T04:16:18;11.65;;;6.75;;
32918;SDS011;19280;42.646;21.150;2023-03-01T04:18:44;12.90;;;7.03;;
32918;SDS011;19280;42.646;21.150;2023-03-01T04:21:10;13.65;;;7.97;;
32918;SDS011;19280;42.646;21.150;2023-03-01T04:23:37;11.80;;;7.80;;
32918;SDS011;19280;42.646;21.150;2023-03-01T04:26:03;33.47;;;16.20;;
32918;SDS011;19280;42.646;21.150;2023-03-01T04:28:31;76.05;;;30.60;;
32918;SDS011;19280;42.646;21.150;2023-03-01T04:31:04;125.43;;;46.28;;
32918;SDS011;19280;42.646;21.150;2023-03-01T04:33:46;109.30;;;38.27;;
32918;SDS011;19280;42.646;21.150;2023-03-01T04:36:13;85.25;;;31.23;;
32918;SDS011;19280;42.646;21.150;2023-03-01T04:38:40;82.05;;;27.63;;
32918;SDS011;19280;42.646;21.150;2023-03-01T04:41:07;92.93;;;30.17;;
32918;SDS011;19280;42.646;21.150;2023-03-01T04:43:33;151.63;;;45.75;;
32918;SDS011;19280;42.646;21.150;2023-03-01T04:46:03;28.60;;;11.75;;
32918;SDS011;19280;42.646;21.150;2023-03-01T04:48:31;22.03;;;11.37;;
32918;SDS011;19280;42.646;21.150;2023-03-01T04:50:58;17.55;;;9.55;;
32918;SDS011;19280;42.646;21.150;2023-03-01T04:53:24;21.50;;;9.25;;
32918;SDS011;19280;42.646;21.150;2023-03-01T04:55:50;15.88;;;9.85;;
32918;SDS011;19280;42.646;21.150;2023-03-01T04:58:17;17.50;;;10.07;;
32918;SDS011;19280;42.646;21.150;2023-03-01T05:00:43;18.95;;;10.52;;
32918;SDS011;19280;42.646;21.150;2023-03-01T05:03:09;16.38;;;9.48;;
32918;SDS011;19280;42.646;21.150;2023-03-01T05:05:38;17.65;;;10.45;;
32918;SDS011;19280;42.646;21.150;2023-03-01T05:08:06;21.52;;;11.15;;
32918;SDS011;19280;42.646;21.150;2023-03-01T05:10:33;17.63;;;10.50;;
32918;SDS011;19280;42.646;21.150;2023-03-01T05:13:00;18.55;;;10.27;;
32918;SDS011;19280;42.646;21.150;2023-03-01T05:15:26;19.23;;;10.15;;
32918;SDS011;19280;42.646;21.150;2023-03-01T05:17:53;18.55;;;10.07;;
32918;SDS011;19280;42.646;21.150;2023-03-01T05:20:20;18.05;;;9.65;;
32918;SDS011;19280;42.646;21.150;2023-03-01T05:22:49;19.13;;;9.57;;
32918;SDS011;19280;42.646;21.150;2023-03-01T05:25:15;19.13;;;10.45;;
32918;SDS011;19280;42.646;21.150;2023-03-01T05:27:42;22.33;;;11.43;;
32918;SDS011;19280;42.646;21.150;2023-03-01T05:30:08;24.30;;;12.35;;
32918;SDS011;19280;42.646;21.150;2023-03-01T05:32:41;21.45;;;11.40;;
32918;SDS011;19280;42.646;21.150;2023-03-01T05:35:08;22.30;;;11.73;;
32918;SDS011;19280;42.646;21.150;2023-03-01T05:37:38;37.42;;;15.43;;
32918;SDS011;19280;42.646;21.150;2023-03-01T05:40:04;30.17;;;15.43;;
32918;SDS011;19280;42.646;21.150;2023-03-01T05:42:30;28.40;;;15.20;;
32918;SDS011;19280;42.646;21.150;2023-03-01T05:44:56;38.17;;;18.52;;
32918;SDS011;19280;42.646;21.150;2023-03-01T05:47:22;35.00;;;19.35;;
32918;SDS011;19280;42.646;21.150;2023-03-01T05:49:48;36.45;;;18.95;;
32918;SDS011;19280;42.646;21.150;2023-03-01T05:52:15;53.72;;;19.33;;
32918;SDS011;19280;42.646;21.150;2023-03-01T05:54:41;41.03;;;17.42;;
32918;SDS011;19280;42.646;21.150;2023-03-01T05:57:07;35.65;;;16.20;;
32918;SDS011;19280;42.646;21.150;2023-03-01T05:59:33;35.55;;;16.77;;
32918;SDS011;19280;42.646;21.150;2023-03-01T06:02:00;21.98;;;12.40;;
32918;SDS011;19280;42.646;21.150;2023-03-01T06:04:26;17.45;;;10.38;;
32918;SDS011;19280;42.646;21.150;2023-03-01T06:06:52;15.25;;;8.85;;
32918;SDS011;19280;42.646;21.150;2023-03-01T06:09:18;22.45;;;9.25;;
32918;SDS011;19280;42.646;21.150;2023-03-01T06:11:44;17.17;;;9.05;;
32918;SDS011;19280;42.646;21.150;2023-03-01T06:14:10;20.15;;;9.05;;
32918;SDS011;19280;42.646;21.150;2023-03-01T06:16:39;14.45;;;9.20;;
32918;SDS011;19280;42.646;21.150;2023-03-01T06:19:05;17.63;;;9.60;;
32918;SDS011;19280;42.646;21.150;2023-03-01T06:21:31;17.42;;;10.07;;
32918;SDS011;19280;42.646;21.150;2023-03-01T06:23:57;19.63;;;10.23;;
32918;SDS011;19280;42.646;21.150;2023-03-01T06:26:23;20.52;;;11.40;;
32918;SDS011;19280;42.646;21.150;2023-03-01T06:28:49;15.52;;;9.60;;
32918;SDS011;19280;42.646;21.150;2023-03-01T06:31:15;15.65;;;9.65;;
32918;SDS011;19280;42.646;21.150;2023-03-01T06:33:42;16.50;;;9.48;;
32918;SDS011;19280;42.646;21.150;2023-03-01T06:36:09;17.67;;;10.75;;
32918;SDS011;19280;42.646;21.150;2023-03-01T06:38:35;17.52;;;9.93;;
32918;SDS011;19280;42.646;21.150;2023-03-01T06:41:01;20.23;;;10.52;;
32918;SDS011;19280;42.646;21.150;2023-03-01T06:43:27;21.15;;;11.13;;
32918;SDS011;19280;42.646;21.150;2023-03-01T06:45:54;23.95;;;12.00;;
32918;SDS011;19280;42.646;21.150;2023-03-01T06:48:20;18.58;;;11.40;;
32918;SDS011;19280;42.646;21.150;2023-03-01T06:50:46;19.33;;;11.32;;
32918;SDS011;19280;42.646;21.150;2023-03-01T06:53:12;21.15;;;11.88;;
32918;SDS011;19280;42.646;21.150;2023-03-01T06:55:38;21.90;;;12.13;;
32918;SDS011;19280;42.646;21.150;2023-03-01T06:58:04;17.15;;;9.98;;
32918;SDS011;19280;42.646;21.150;2023-03-01T07:00:30;19.50;;;10.77;;
32918;SDS011;19280;42.646;21.150;2023-03-01T07:02:58;17.65;;;11.00;;
32918;SDS011;19280;42.646;21.150;2023-03-01T07:05:24;19.95;;;11.70;;
32918;SDS011;19280;42.646;21.150;2023-03-01T07:07:50;18.77;;;11.00;;
32918;SDS011;19280;42.646;21.150;2023-03-01T07:10:16;16.60;;;10.20;;
32918;SDS011;19280;42.646;21.150;2023-03-01T07:12:42;16.45;;;10.20;;
32918;SDS011;19280;42.646;21.150;2023-03-01T07:15:08;17.48;;;10.43;;
32918;SDS011;19280;42.646;21.150;2023-03-01T07:17:35;15.70;;;9.55;;
32918;SDS011;19280;42.646;21.150;2023-03-01T07:20:01;15.68;;;9.93;;
32918;SDS011;19280;42.646;21.150;2023-03-01T07:22:27;19.40;;;9.20;;
32918;SDS011;19280;42.646;21.150;2023-03-01T07:24:53;14.63;;;8.60;;
32918;SDS011;19280;42.646;21.150;2023-03-01T07:27:19;18.15;;;9.10;;
32918;SDS011;19280;42.646;21.150;2023-03-01T07:29:45;14.90;;;8.98;;
32918;SDS011;19280;42.646;21.150;2023-03-01T07:32:11;17.15;;;9.82;;
32918;SDS011;19280;42.646;21.150;2023-03-01T07:34:37;19.20;;;10.20;;
32918;SDS011;19280;42.646;21.150;2023-03-01T07:37:03;15.50;;;8.88;;
32918;SDS011;19280;42.646;21.150;2023-03-01T07:39:29;17.70;;;10.95;;
32918;SDS011;19280;42.646;21.150;2023-03-01T07:41:55;17.15;;;11.00;;
32918;SDS011;19280;42.646;21.150;2023-03-01T07:44:21;17.65;;;11.20;;
32918;SDS011;19280;42.646;21.150;2023-03-01T07:46:47;17.52;;;9.95;;
32918;SDS011;19280;42.646;21.150;2023-03-01T07:49:15;15.40;;;10.00;;
32918;SDS011;19280;42.646;21.150;2023-03-01T07:51:41;19.80;;;10.40;;
32918;SDS011;19280;42.646;21.150;2023-03-01T07:54:08;25.63;;;12.50;;
32918;SDS011;19280;42.646;21.150;2023-03-01T07:56:34;22.48;;;11.52;;
32918;SDS011;19280;42.646;21.150;2023-03-01T07:59:00;23.17;;;11.65;;
32918;SDS011;19280;42.646;21.150;2023-03-01T08:01:26;19.73;;;11.68;;
32918;SDS011;19280;42.646;21.150;2023-03-01T08:03:53;19.15;;;11.60;;
32918;SDS011;19280;42.646;21.150;2023-03-01T08:06:19;19.05;;;11.50;;
32918;SDS011;19280;42.646;21.150;2023-03-01T08:08:45;22.20;;;11.27;;
32918;SDS011;19280;42.646;21.150;2023-03-01T08:11:12;23.05;;;11.93;;
32918;SDS011;19280;42.646;21.150;2023-03-01T08:13:38;20.85;;;12.90;;
32918;SDS011;19280;42.646;21.150;2023-03-01T08:16:05;29.10;;;15.55;;
32918;SDS011;19280;42.646;21.150;2023-03-01T08:18:32;28.17;;;16.35;;
32918;SDS011;19280;42.646;21.150;2023-03-01T08:21:01;31.42;;;17.88;;
32918;SDS011;19280;42.646;21.150;2023-03-01T08:23:27;30.48;;;16.65;;
32918;SDS011;19280;42.646;21.150;2023-03-01T08:25:54;28.65;;;17.13;;
32918;SDS011;19280;42.646;21.150;2023-03-01T08:28:21;31.23;;;16.42;;
32918;SDS011;19280;42.646;21.150;2023-03-01T08:30:47;27.95;;;16.38;;
32918;SDS011;19280;42.646;21.150;2023-03-01T08:33:13;32.28;;;17.27;;
32918;SDS011;19280;42.646;21.150;2023-03-01T08:35:39;30.10;;;17.73;;
32918;SDS011;19280;42.646;21.150;2023-03-01T08:38:05;31.15;;;18.13;;
32918;SDS011;19280;42.646;21.150;2023-03-01T08:40:31;32.85;;;16.42;;
32918;SDS011;19280;42.646;21.150;2023-03-01T08:42:57;30.85;;;16.13;;
32918;SDS011;19280;42.646;21.150;2023-03-01T08:45:23;29.20;;;16.35;;
32918;SDS011;19280;42.646;21.150;2023-03-01T08:47:51;29.33;;;16.27;;
32918;SDS011;19280;42.646;21.150;2023-03-01T08:50:18;28.80;;;16.52;;
32918;SDS011;19280;42.646;21.150;2023-03-01T08:52:44;28.10;;;15.90;;
32918;SDS011;19280;42.646;21.150;2023-03-01T08:55:10;35.58;;;19.02;;
32918;SDS011;19280;42.646;21.150;2023-03-01T08:57:36;33.33;;;20.77;;
32918;SDS011;19280;42.646;21.150;2023-03-01T09:00:02;39.13;;;20.55;;
32918;SDS011;19280;42.646;21.150;2023-03-01T09:02:33;41.85;;;22.55;;
32918;SDS011;19280;42.646;21.150;2023-03-01T09:04:59;43.05;;;22.23;;
32918;SDS011;19280;42.646;21.150;2023-03-01T09:07:26;43.72;;;24.85;;
32918;SDS011;19280;42.646;21.150;2023-03-01T09:09:55;38.97;;;22.67;;
32918;SDS011;19280;42.646;21.150;2023-03-01T09:12:21;50.45;;;23.92;;
32918;SDS011;19280;42.646;21.150;2023-03-01T09:14:47;42.08;;;22.80;;
32918;SDS011;19280;42.646;21.150;2023-03-01T09:17:13;50.70;;;23.75;;
32918;SDS011;19280;42.646;21.150;2023-03-01T09:19:39;47.80;;;23.17;;
32918;SDS011;19280;42.646;21.150;2023-03-01T09:22:05;41.53;;;22.83;;
32918;SDS011;19280;42.646;21.150;2023-03-01T09:24:31;51.42;;;25.85;;
32918;SDS011;19280;42.646;21.150;2023-03-01T09:26:57;45.25;;;24.80;;
32918;SDS011;19280;42.646;21.150;2023-03-01T09:29:23;45.95;;;23.67;;
32918;SDS011;19280;42.646;21.150;2023-03-01T09:31:51;47.33;;;22.27;;
32918;SDS011;19280;42.646;21.150;2023-03-01T09:34:20;36.17;;;22.15;;
32918;SDS011;19280;42.646;21.150;2023-03-01T09:36:48;42.95;;;21.15;;
32918;SDS011;19280;42.646;21.150;2023-03-01T09:39:15;40.55;;;22.35;;
32918;SDS011;19280;42.646;21.150;2023-03-01T09:44:23;42.38;;;23.20;;
32918;SDS011;19280;42.646;21.150;2023-03-01T09:46:51;48.47;;;27.55;;
32918;SDS011;19280;42.646;21.150;2023-03-01T09:49:19;50.92;;;27.48;;
32918;SDS011;19280;42.646;21.150;2023-03-01T09:54:36;36.92;;;20.88;;
32918;SDS011;19280;42.646;21.150;2023-03-01T09:57:06;46.70;;;24.40;;
32918;SDS011;19280;42.646;21.150;2023-03-01T09:59:36;41.05;;;22.88;;
32918;SDS011;19280;42.646;21.150;2023-03-01T10:02:11;59.33;;;32.83;;
32918;SDS011;19280;42.646;21.150;2023-03-01T10:04:49;40.72;;;24.60;;
32918;SDS011;19280;42.646;21.150;2023-03-01T10:10:04;48.05;;;25.38;;
32918;SDS011;19280;42.646;21.150;2023-03-01T10:12:37;53.67;;;26.13;;
32918;SDS011;19280;42.646;21.150;2023-03-01T10:15:15;54.80;;;27.48;;
32918;SDS011;19280;42.646;21.150;2023-03-01T10:17:55;61.15;;;25.55;;
32918;SDS011;19280;42.646;21.150;2023-03-01T10:20:28;49.35;;;26.02;;
32918;SDS011;19280;42.646;21.150;2023-03-01T10:22:55;53.70;;;27.15;;
32918;SDS011;19280;42.646;21.150;2023-03-01T10:27:51;60.22;;;27.42;;
32918;SDS011;19280;42.646;21.150;2023-03-01T10:30:19;51.65;;;26.08;;
32918;SDS011;19280;42.646;21.150;2023-03-01T10:32:47;57.13;;;27.13;;
32918;SDS011;19280;42.646;21.150;2023-03-01T10:35:20;53.78;;;26.10;;
32918;SDS011;19280;42.646;21.150;2023-03-01T10:37:57;28.38;;;14.27;;
32918;SDS011;19280;42.646;21.150;2023-03-01T10:40:23;21.20;;;11.48;;
32918;SDS011;19280;42.646;21.150;2023-03-01T10:42:49;30.85;;;12.25;;
32918;SDS011;19280;42.646;21.150;2023-03-01T10:47:45;22.70;;;13.48;;
32918;SDS011;19280;42.646;21.150;2023-03-01T10:50:19;20.83;;;11.43;;
32918;SDS011;19280;42.646;21.150;2023-03-01T10:52:55;19.60;;;11.98;;
32918;SDS011;19280;42.646;21.150;2023-03-01T10:55:33;22.08;;;12.77;;
32918;SDS011;19280;42.646;21.150;2023-03-01T11:00:45;34.20;;;18.38;;
32918;SDS011;19280;42.646;21.150;2023-03-01T11:03:13;20.45;;;12.45;;
32918;SDS011;19280;42.646;21.150;2023-03-01T11:05:52;24.92;;;13.38;;
32918;SDS011;19280;42.646;21.150;2023-03-01T11:08:32;22.95;;;12.45;;
32918;SDS011;19280;42.646;21.150;2023-03-01T11:16:34;31.95;;;16.15;;
32918;SDS011;19280;42.646;21.150;2023-03-01T11:19:13;27.25;;;15.30;;
32918;SDS011;19280;42.646;21.150;2023-03-01T11:21:44;26.65;;;15.10;;
32918;SDS011;19280;42.646;21.150;2023-03-01T11:24:13;23.92;;;14.15;;
32918;SDS011;19280;42.646;21.150;2023-03-01T11:26:42;25.25;;;15.38;;
32918;SDS011;19280;42.646;21.150;2023-03-01T11:29:30;37.65;;;14.70;;
32918;SDS011;19280;42.646;21.150;2023-03-01T11:31:59;34.60;;;14.65;;
32918;SDS011;19280;42.646;21.150;2023-03-01T11:37:03;25.88;;;14.75;;
32918;SDS011;19280;42.646;21.150;2023-03-01T11:39:40;31.63;;;20.95;;
32918;SDS011;19280;42.646;21.150;2023-03-01T11:42:11;19.85;;;12.48;;
32918;SDS011;19280;42.646;21.150;2023-03-01T11:44:38;29.10;;;15.45;;
32918;SDS011;19280;42.646;21.150;2023-03-01T11:55:23;40.13;;;23.27;;
32918;SDS011;19280;42.646;21.150;2023-03-01T11:58:00;46.92;;;24.00;;
32918;SDS011;19280;42.646;21.150;2023-03-01T12:08:40;53.35;;;26.08;;
32918;SDS011;19280;42.646;21.150;2023-03-01T12:11:13;47.17;;;27.33;;
32918;SDS011;19280;42.646;21.150;2023-03-01T12:16:12;50.00;;;26.30;;
32918;SDS011;19280;42.646;21.150;2023-03-01T12:27:17;45.72;;;24.27;;
32918;SDS011;19280;42.646;21.150;2023-03-01T12:32:36;47.10;;;24.13;;
32918;SDS011;19280;42.646;21.150;2023-03-01T12:40:36;63.08;;;31.75;;
32918;SDS011;19280;42.646;21.150;2023-03-01T12:48:37;48.63;;;26.73;;
32918;SDS011;19280;42.646;21.150;2023-03-01T12:51:06;51.80;;;25.85;;
32918;SDS011;19280;42.646;21.150;2023-03-01T12:53:46;57.10;;;29.75;;
32918;SDS011;19280;42.646;21.150;2023-03-01T12:56:17;58.97;;;29.92;;
32918;SDS011;19280;42.646;21.150;2023-03-01T12:58:51;60.00;;;29.63;;
32918;SDS011;19280;42.646;21.150;2023-03-01T13:06:26;36.67;;;17.70;;
32918;SDS011;19280;42.646;21.150;2023-03-01T13:08:58;35.92;;;18.85;;
32918;SDS011;19280;42.646;21.150;2023-03-01T13:11:26;36.75;;;20.33;;
32918;SDS011;19280;42.646;21.150;2023-03-01T13:13:59;39.08;;;20.95;;
32918;SDS011;19280;42.646;21.150;2023-03-01T13:16:39;38.65;;;19.48;;
32918;SDS011;19280;42.646;21.150;2023-03-01T13:21:36;35.42;;;18.88;;
32918;SDS011;19280;42.646;21.150;2023-03-01T13:24:02;33.72;;;18.05;;
32918;SDS011;19280;42.646;21.150;2023-03-01T13:26:28;28.33;;;16.55;;
32918;SDS011;19280;42.646;21.150;2023-03-01T13:28:55;34.83;;;16.00;;
32918;SDS011;19280;42.646;21.150;2023-03-01T13:34:00;35.55;;;17.83;;
32918;SDS011;19280;42.646;21.150;2023-03-01T13:39:02;39.60;;;18.67;;
32918;SDS011;19280;42.646;21.150;2023-03-01T13:49:27;39.03;;;19.10;;
32918;SDS011;19280;42.646;21.150;2023-03-01T13:51:53;42.47;;;18.70;;
32918;SDS011;19280;42.646;21.150;2023-03-01T13:54:29;53.13;;;19.60;;
32918;SDS011;19280;42.646;21.150;2023-03-01T13:56:57;41.30;;;19.85;;
32918;SDS011;19280;42.646;21.150;2023-03-01T13:59:23;45.33;;;21.00;;
32918;SDS011;19280;42.646;21.150;2023-03-01T14:01:58;46.33;;;21.02;;
32918;SDS011;19280;42.646;21.150;2023-03-01T14:04:29;48.42;;;21.08;;
32918;SDS011;19280;42.646;21.150;2023-03-01T14:09:59;49.83;;;23.08;;
32918;SDS011;19280;42.646;21.150;2023-03-01T14:20:29;49.70;;;26.33;;
32918;SDS011;19280;42.646;21.150;2023-03-01T14:22:57;56.08;;;28.35;;
32918;SDS011;19280;42.646;21.150;2023-03-01T14:25:28;57.03;;;25.45;;
32918;SDS011;19280;42.646;21.150;2023-03-01T14:28:17;58.08;;;29.48;;
32918;SDS011;19280;42.646;21.150;2023-03-01T14:30:45;78.45;;;36.58;;
32918;SDS011;19280;42.646;21.150;2023-03-01T14:33:25;94.95;;;48.38;;
32918;SDS011;19280;42.646;21.150;2023-03-01T14:36:01;79.25;;;35.67;;
32918;SDS011;19280;42.646;21.150;2023-03-01T14:38:29;58.90;;;28.08;;
32918;SDS011;19280;42.646;21.150;2023-03-01T14:40:59;134.93;;;60.67;;
32918;SDS011;19280;42.646;21.150;2023-03-01T14:43:26;71.57;;;33.20;;
32918;SDS011;19280;42.646;21.150;2023-03-01T14:45:53;85.47;;;42.17;;
32918;SDS011;19280;42.646;21.150;2023-03-01T14:48:19;102.22;;;57.58;;
32918;SDS011;19280;42.646;21.150;2023-03-01T14:50:45;121.70;;;69.95;;
32918;SDS011;19280;42.646;21.150;2023-03-01T14:53:17;97.80;;;51.63;;
32918;SDS011;19280;42.646;21.150;2023-03-01T14:55:47;83.05;;;41.63;;
32918;SDS011;19280;42.646;21.150;2023-03-01T14:58:16;74.95;;;38.38;;
32918;SDS011;19280;42.646;21.150;2023-03-01T15:00:57;82.65;;;39.00;;
32918;SDS011;19280;42.646;21.150;2023-03-01T15:03:25;154.88;;;71.07;;
32918;SDS011;19280;42.646;21.150;2023-03-01T15:05:52;70.40;;;31.08;;
32918;SDS011;19280;42.646;21.150;2023-03-01T15:08:23;124.35;;;61.03;;
32918;SDS011;19280;42.646;21.150;2023-03-01T15:13:25;83.70;;;42.92;;
32918;SDS011;19280;42.646;21.150;2023-03-01T15:15:53;89.47;;;42.55;;
32918;SDS011;19280;42.646;21.150;2023-03-01T15:18:26;79.20;;;34.33;;
32918;SDS011;19280;42.646;21.150;2023-03-01T15:20:53;61.65;;;31.35;;
32918;SDS011;19280;42.646;21.150;2023-03-01T15:23:20;64.22;;;33.72;;
32918;SDS011;19280;42.646;21.150;2023-03-01T15:25:48;61.75;;;30.55;;
32918;SDS011;19280;42.646;21.150;2023-03-01T15:28:33;296.58;;;109.07;;
32918;SDS011;19280;42.646;21.150;2023-03-01T15:31:02;268.38;;;104.68;;
32918;SDS011;19280;42.646;21.150;2023-03-01T15:33:29;211.75;;;82.82;;
32918;SDS011;19280;42.646;21.150;2023-03-01T15:35:59;319.17;;;115.60;;
32918;SDS011;19280;42.646;21.150;2023-03-01T15:40:52;133.95;;;56.65;;
32918;SDS011;19280;42.646;21.150;2023-03-01T15:43:39;111.20;;;54.33;;
32918;SDS011;19280;42.646;21.150;2023-03-01T15:46:11;434.98;;;157.80;;
32918;SDS011;19280;42.646;21.150;2023-03-01T15:48:39;245.30;;;89.85;;
32918;SDS011;19280;42.646;21.150;2023-03-01T15:51:09;124.95;;;54.53;;
32918;SDS011;19280;42.646;21.150;2023-03-01T15:53:37;91.97;;;40.08;;
32918;SDS011;19280;42.646;21.150;2023-03-01T15:56:03;240.68;;;100.03;;
32918;SDS011;19280;42.646;21.150;2023-03-01T15:58:32;72.38;;;34.38;;
32918;SDS011;19280;42.646;21.150;2023-03-01T16:00:58;84.10;;;35.90;;
32918;SDS011;19280;42.646;21.150;2023-03-01T16:03:24;92.03;;;42.28;;
32918;SDS011;19280;42.646;21.150;2023-03-01T16:05:50;113.05;;;49.05;;
32918;SDS011;19280;42.646;21.150;2023-03-01T16:08:17;126.18;;;54.25;;
32918;SDS011;19280;42.646;21.150;2023-03-01T16:10:43;94.00;;;49.05;;
32918;SDS011;19280;42.646;21.150;2023-03-01T16:13:10;96.60;;;45.92;;
32918;SDS011;19280;42.646;21.150;2023-03-01T16:15:36;95.00;;;46.28;;
32918;SDS011;19280;42.646;21.150;2023-03-01T16:18:03;78.07;;;40.40;;